sensor_id;sensor_type;location;lat;lon;timestamp;pressure;altitude;pressure_sealevel;temperature
75353;BMP280;76704;51.574;7.088;2024-03-23T00:52:54;64169.50;;;12.56
75353;BMP280;76704;51.574;7.088;2024-03-23T00:55:20;64364.41;;;12.59
75353;BMP280;76704;51.574;7.088;2024-03-23T00:57:46;64388.00;;;12.58
75353;BMP280;76704;51.574;7.088;2024-03-23T01:00:12;64301.59;;;12.52
75353;BMP280;76704;51.574;7.088;2024-03-23T01:02:41;64113.97;;;12.51
75353;BMP280;76704;51.574;7.088;2024-03-23T01:05:07;64022.41;;;12.48
75353;BMP280;76704;51.574;7.088;2024-03-23T01:07:35;64081.72;;;12.48
75353;BMP280;76704;51.574;7.088;2024-03-23T01:10:04;63956.84;;;12.46
75353;BMP280;76704;51.574;7.088;2024-03-23T01:12:32;63860.28;;;12.40
75353;BMP280;76704;51.574;7.088;2024-03-23T01:14:59;63955.72;;;12.42
75353;BMP280;76704;51.574;7.088;2024-03-23T01:17:26;63941.44;;;12.41
75353;BMP280;76704;51.574;7.088;2024-03-23T01:19:55;63833.88;;;12.38
75353;BMP280;76704;51.574;7.088;2024-03-23T01:22:24;63790.66;;;12.37
75353;BMP280;76704;51.574;7.088;2024-03-23T01:24:51;63457.56;;;12.29
75353;BMP280;76704;51.574;7.088;2024-03-23T01:27:18;63367.41;;;12.24
75353;BMP280;76704;51.574;7.088;2024-03-23T01:29:44;63039.94;;;12.08
75353;BMP280;76704;51.574;7.088;2024-03-23T01:32:12;63154.91;;;12.23
75353;BMP280;76704;51.574;7.088;2024-03-23T01:34:40;63149.94;;;12.20
75353;BMP280;76704;51.574;7.088;2024-03-23T01:37:06;63093.56;;;12.02
75353;BMP280;76704;51.574;7.088;2024-03-23T01:39:36;63053.97;;;12.15
75353;BMP280;76704;51.574;7.088;2024-03-23T01:42:05;63250.72;;;12.14
75353;BMP280;76704;51.574;7.088;2024-03-23T01:44:35;62989.66;;;12.08
75353;BMP280;76704;51.574;7.088;2024-03-23T01:47:04;63033.41;;;12.13
75353;BMP280;76704;51.574;7.088;2024-03-23T01:49:35;62896.28;;;12.12
75353;BMP280;76704;51.574;7.088;2024-03-23T01:52:03;62750.09;;;12.06
75353;BMP280;76704;51.574;7.088;2024-03-23T01:54:30;62693.91;;;12.03
75353;BMP280;76704;51.574;7.088;2024-03-23T01:56:59;62656.34;;;11.97
75353;BMP280;76704;51.574;7.088;2024-03-23T01:59:28;62669.31;;;12.00
75353;BMP280;76704;51.574;7.088;2024-03-23T02:01:58;62618.59;;;12.00
75353;BMP280;76704;51.574;7.088;2024-03-23T02:04:30;62477.38;;;11.94
75353;BMP280;76704;51.574;7.088;2024-03-23T02:06:59;62550.25;;;11.92
75353;BMP280;76704;51.574;7.088;2024-03-23T02:09:28;62316.63;;;11.91
75353;BMP280;76704;51.574;7.088;2024-03-23T02:11:57;61980.63;;;11.85
75353;BMP280;76704;51.574;7.088;2024-03-23T02:14:28;62209.72;;;11.85
75353;BMP280;76704;51.574;7.088;2024-03-23T02:16:58;62410.44;;;11.88
75353;BMP280;76704;51.574;7.088;2024-03-23T02:19:27;62581.38;;;11.91
75353;BMP280;76704;51.574;7.088;2024-03-23T02:21:56;62250.19;;;11.85
75353;BMP280;76704;51.574;7.088;2024-03-23T02:24:24;62197.66;;;11.83
75353;BMP280;76704;51.574;7.088;2024-03-23T02:26:54;62125.06;;;11.79
75353;BMP280;76704;51.574;7.088;2024-03-23T02:29:21;62051.63;;;11.78
75353;BMP280;76704;51.574;7.088;2024-03-23T02:31:49;62230.44;;;11.78
75353;BMP280;76704;51.574;7.088;2024-03-23T02:34:17;61944.69;;;11.69
75353;BMP280;76704;51.574;7.088;2024-03-23T02:36:45;61826.38;;;11.68
75353;BMP280;76704;51.574;7.088;2024-03-23T02:39:14;61477.78;;;11.66
75353;BMP280;76704;51.574;7.088;2024-03-23T02:41:42;61567.56;;;11.65
75353;BMP280;76704;51.574;7.088;2024-03-23T02:44:10;61415.88;;;11.59
75353;BMP280;76704;51.574;7.088;2024-03-23T02:46:43;61138.00;;;11.52
75353;BMP280;76704;51.574;7.088;2024-03-23T02:49:09;61184.19;;;11.50
75353;BMP280;76704;51.574;7.088;2024-03-23T02:51:35;61247.78;;;11.53
75353;BMP280;76704;51.574;7.088;2024-03-23T02:54:03;61446.06;;;11.57
75353;BMP280;76704;51.574;7.088;2024-03-23T02:56:34;61760.03;;;11.62
75353;BMP280;76704;51.574;7.088;2024-03-23T02:59:00;61453.63;;;11.57
75353;BMP280;76704;51.574;7.088;2024-03-23T03:01:27;61386.44;;;11.53
75353;BMP280;76704;51.574;7.088;2024-03-23T03:03:55;61256.63;;;11.48
75353;BMP280;76704;51.574;7.088;2024-03-23T03:06:26;61278.44;;;11.51
75353;BMP280;76704;51.574;7.088;2024-03-23T03:08:53;61372.53;;;11.43
75353;BMP280;76704;51.574;7.088;2024-03-23T03:11:20;61343.69;;;11.47
75353;BMP280;76704;51.574;7.088;2024-03-23T03:13:49;60896.16;;;11.38
75353;BMP280;76704;51.574;7.088;2024-03-23T03:16:16;61058.75;;;11.35
75353;BMP280;76704;51.574;7.088;2024-03-23T03:18:43;61083.09;;;11.26
75353;BMP280;76704;51.574;7.088;2024-03-23T03:21:14;61309.03;;;11.47
75353;BMP280;76704;51.574;7.088;2024-03-23T03:23:44;61223.19;;;11.40
75353;BMP280;76704;51.574;7.088;2024-03-23T03:26:11;61217.00;;;11.42
75353;BMP280;76704;51.574;7.088;2024-03-23T03:28:39;60928.13;;;11.35
75353;BMP280;76704;51.574;7.088;2024-03-23T03:31:06;61037.44;;;11.38
75353;BMP280;76704;51.574;7.088;2024-03-23T03:33:35;60726.41;;;11.33
75353;BMP280;76704;51.574;7.088;2024-03-23T03:36:02;60971.63;;;11.33
75353;BMP280;76704;51.574;7.088;2024-03-23T03:38:33;60683.31;;;11.30
75353;BMP280;76704;51.574;7.088;2024-03-23T03:41:02;60754.84;;;11.29
75353;BMP280;76704;51.574;7.088;2024-03-23T03:43:30;60677.09;;;11.29
75353;BMP280;76704;51.574;7.088;2024-03-23T03:46:00;60674.84;;;11.26
75353;BMP280;76704;51.574;7.088;2024-03-23T03:48:28;60344.88;;;11.14
75353;BMP280;76704;51.574;7.088;2024-03-23T03:50:56;60801.00;;;11.24
75353;BMP280;76704;51.574;7.088;2024-03-23T03:53:27;60731.66;;;11.12
75353;BMP280;76704;51.574;7.088;2024-03-23T03:55:53;60768.13;;;11.23
75353;BMP280;76704;51.574;7.088;2024-03-23T03:58:19;60656.63;;;11.20
75353;BMP280;76704;51.574;7.088;2024-03-23T04:00:45;60663.28;;;11.19
75353;BMP280;76704;51.574;7.088;2024-03-23T04:03:13;60701.50;;;11.20
75353;BMP280;76704;51.574;7.088;2024-03-23T04:05:40;60832.50;;;11.20
75353;BMP280;76704;51.574;7.088;2024-03-23T04:08:09;60638.41;;;11.18
75353;BMP280;76704;51.574;7.088;2024-03-23T04:10:36;60773.88;;;11.17
75353;BMP280;76704;51.574;7.088;2024-03-23T04:13:03;60501.63;;;11.14
75353;BMP280;76704;51.574;7.088;2024-03-23T04:15:31;60496.72;;;11.14
75353;BMP280;76704;51.574;7.088;2024-03-23T04:17:58;60778.75;;;11.14
75353;BMP280;76704;51.574;7.088;2024-03-23T04:20:27;60267.22;;;11.05
75353;BMP280;76704;51.574;7.088;2024-03-23T04:22:53;60074.09;;;11.03
75353;BMP280;76704;51.574;7.088;2024-03-23T04:25:23;60205.50;;;11.04
75353;BMP280;76704;51.574;7.088;2024-03-23T04:27:52;60473.66;;;11.09
75353;BMP280;76704;51.574;7.088;2024-03-23T04:30:20;60416.84;;;11.05
75353;BMP280;76704;51.574;7.088;2024-03-23T04:33:00;60116.28;;;10.99
75353;BMP280;76704;51.574;7.088;2024-03-23T04:35:28;60280.06;;;11.01
75353;BMP280;76704;51.574;7.088;2024-03-23T04:37:56;60200.22;;;10.95
75353;BMP280;76704;51.574;7.088;2024-03-23T04:40:26;60360.44;;;10.95
75353;BMP280;76704;51.574;7.088;2024-03-23T04:42:54;60303.59;;;11.00
75353;BMP280;76704;51.574;7.088;2024-03-23T04:45:21;60090.56;;;10.94
75353;BMP280;76704;51.574;7.088;2024-03-23T04:47:48;59937.06;;;10.86
75353;BMP280;76704;51.574;7.088;2024-03-23T04:50:16;59811.91;;;10.89
75353;BMP280;76704;51.574;7.088;2024-03-23T04:52:43;59500.44;;;10.83
75353;BMP280;76704;51.574;7.088;2024-03-23T04:55:15;59511.59;;;10.81
75353;BMP280;76704;51.574;7.088;2024-03-23T04:57:43;59215.84;;;10.71
75353;BMP280;76704;51.574;7.088;2024-03-23T05:00:10;59630.94;;;10.80
75353;BMP280;76704;51.574;7.088;2024-03-23T05:02:44;59595.03;;;10.79
75353;BMP280;76704;51.574;7.088;2024-03-23T05:05:11;59758.72;;;10.80
75353;BMP280;76704;51.574;7.088;2024-03-23T05:07:39;59776.03;;;10.82
75353;BMP280;76704;51.574;7.088;2024-03-23T05:10:05;59950.38;;;10.83
75353;BMP280;76704;51.574;7.088;2024-03-23T05:12:37;59825.28;;;10.80
75353;BMP280;76704;51.574;7.088;2024-03-23T05:15:05;59644.72;;;10.78
75353;BMP280;76704;51.574;7.088;2024-03-23T05:17:32;59965.94;;;10.83
75353;BMP280;76704;51.574;7.088;2024-03-23T05:19:58;59762.78;;;10.76
75353;BMP280;76704;51.574;7.088;2024-03-23T05:22:25;59675.78;;;10.77
75353;BMP280;76704;51.574;7.088;2024-03-23T05:24:54;60079.09;;;10.81
75353;BMP280;76704;51.574;7.088;2024-03-23T05:27:20;60267.25;;;10.77
75353;BMP280;76704;51.574;7.088;2024-03-23T05:29:48;59887.91;;;10.72
75353;BMP280;76704;51.574;7.088;2024-03-23T05:32:16;59617.75;;;10.71
75353;BMP280;76704;51.574;7.088;2024-03-23T05:34:42;59755.25;;;10.73
75353;BMP280;76704;51.574;7.088;2024-03-23T05:37:10;59744.63;;;10.73
75353;BMP280;76704;51.574;7.088;2024-03-23T05:39:37;59456.78;;;10.66
75353;BMP280;76704;51.574;7.088;2024-03-23T05:42:07;59351.69;;;10.65
75353;BMP280;76704;51.574;7.088;2024-03-23T05:44:36;59050.31;;;10.55
75353;BMP280;76704;51.574;7.088;2024-03-23T05:47:06;58997.03;;;10.58
75353;BMP280;76704;51.574;7.088;2024-03-23T05:49:34;59383.22;;;10.61
75353;BMP280;76704;51.574;7.088;2024-03-23T05:52:01;59432.03;;;10.62
75353;BMP280;76704;51.574;7.088;2024-03-23T05:54:30;59658.22;;;10.62
75353;BMP280;76704;51.574;7.088;2024-03-23T05:56:57;60016.59;;;10.70
75353;BMP280;76704;51.574;7.088;2024-03-23T05:59:23;59767.38;;;10.59
75353;BMP280;76704;51.574;7.088;2024-03-23T06:01:50;59850.25;;;10.69
75353;BMP280;76704;51.574;7.088;2024-03-23T06:04:17;59942.06;;;10.67
75353;BMP280;76704;51.574;7.088;2024-03-23T06:06:45;59954.94;;;10.70
75353;BMP280;76704;51.574;7.088;2024-03-23T06:09:12;60040.09;;;10.70
75353;BMP280;76704;51.574;7.088;2024-03-23T06:11:39;59362.53;;;10.53
75353;BMP280;76704;51.574;7.088;2024-03-23T06:14:05;59560.28;;;10.57
75353;BMP280;76704;51.574;7.088;2024-03-23T06:16:34;60111.56;;;10.69
75353;BMP280;76704;51.574;7.088;2024-03-23T06:19:00;60053.88;;;10.70
75353;BMP280;76704;51.574;7.088;2024-03-23T06:21:31;59851.16;;;10.64
75353;BMP280;76704;51.574;7.088;2024-03-23T06:24:05;59548.31;;;10.55
75353;BMP280;76704;51.574;7.088;2024-03-23T06:26:31;59712.41;;;10.57
75353;BMP280;76704;51.574;7.088;2024-03-23T06:28:57;59503.53;;;10.56
75353;BMP280;76704;51.574;7.088;2024-03-23T06:31:24;59719.91;;;10.60
75353;BMP280;76704;51.574;7.088;2024-03-23T06:33:50;58695.53;;;10.41
75353;BMP280;76704;51.574;7.088;2024-03-23T06:36:16;59606.41;;;10.55
75353;BMP280;76704;51.574;7.088;2024-03-23T06:38:42;59729.38;;;10.43
75353;BMP280;76704;51.574;7.088;2024-03-23T06:41:10;59959.53;;;10.44
75353;BMP280;76704;51.574;7.088;2024-03-23T06:43:39;60559.72;;;10.70
75353;BMP280;76704;51.574;7.088;2024-03-23T06:46:05;60246.88;;;10.69
75353;BMP280;76704;51.574;7.088;2024-03-23T06:48:32;60188.31;;;10.66
75353;BMP280;76704;51.574;7.088;2024-03-23T06:50:58;59214.88;;;10.51
75353;BMP280;76704;51.574;7.088;2024-03-23T06:53:29;60135.09;;;10.63
75353;BMP280;76704;51.574;7.088;2024-03-23T06:55:56;59562.31;;;10.34
75353;BMP280;76704;51.574;7.088;2024-03-23T06:58:26;59364.81;;;10.49
75353;BMP280;76704;51.574;7.088;2024-03-23T07:00:53;59354.69;;;10.43
75353;BMP280;76704;51.574;7.088;2024-03-23T07:03:20;59643.78;;;10.45
75353;BMP280;76704;51.574;7.088;2024-03-23T07:05:50;59694.28;;;10.52
75353;BMP280;76704;51.574;7.088;2024-03-23T07:08:16;59555.06;;;10.47
75353;BMP280;76704;51.574;7.088;2024-03-23T07:10:49;59520.47;;;10.47
75353;BMP280;76704;51.574;7.088;2024-03-23T07:13:18;59743.06;;;10.50
75353;BMP280;76704;51.574;7.088;2024-03-23T07:15:55;59526.22;;;10.48
75353;BMP280;76704;51.574;7.088;2024-03-23T07:18:23;59894.28;;;10.52
75353;BMP280;76704;51.574;7.088;2024-03-23T07:20:58;60041.97;;;10.54
75353;BMP280;76704;51.574;7.088;2024-03-23T07:23:25;60270.41;;;10.53
75353;BMP280;76704;51.574;7.088;2024-03-23T07:26:05;60110.72;;;10.53
75353;BMP280;76704;51.574;7.088;2024-03-23T07:28:31;60887.66;;;10.71
75353;BMP280;76704;51.574;7.088;2024-03-23T07:31:10;60893.47;;;10.71
75353;BMP280;76704;51.574;7.088;2024-03-23T07:33:48;60937.78;;;10.67
75353;BMP280;76704;51.574;7.088;2024-03-23T07:36:15;60655.09;;;10.67
75353;BMP280;76704;51.574;7.088;2024-03-23T07:38:42;60914.75;;;10.74
75353;BMP280;76704;51.574;7.088;2024-03-23T07:41:12;61049.72;;;10.77
75353;BMP280;76704;51.574;7.088;2024-03-23T07:43:40;60714.59;;;10.71
75353;BMP280;76704;51.574;7.088;2024-03-23T07:46:07;61017.75;;;10.73
75353;BMP280;76704;51.574;7.088;2024-03-23T07:48:35;61034.19;;;10.77
75353;BMP280;76704;51.574;7.088;2024-03-23T07:51:07;61356.47;;;10.77
75353;BMP280;76704;51.574;7.088;2024-03-23T07:53:35;61682.63;;;10.90
75353;BMP280;76704;51.574;7.088;2024-03-23T07:56:07;61702.22;;;10.94
75353;BMP280;76704;51.574;7.088;2024-03-23T07:58:34;61823.91;;;10.93
75353;BMP280;76704;51.574;7.088;2024-03-23T08:01:20;61533.91;;;10.94
75353;BMP280;76704;51.574;7.088;2024-03-23T08:03:46;62155.44;;;11.00
75353;BMP280;76704;51.574;7.088;2024-03-23T08:06:15;62285.31;;;11.06
75353;BMP280;76704;51.574;7.088;2024-03-23T08:08:44;62384.31;;;11.03
75353;BMP280;76704;51.574;7.088;2024-03-23T08:11:11;61912.00;;;10.99
75353;BMP280;76704;51.574;7.088;2024-03-23T08:13:42;62272.88;;;11.07
75353;BMP280;76704;51.574;7.088;2024-03-23T08:16:12;63067.78;;;11.16
75353;BMP280;76704;51.574;7.088;2024-03-23T08:18:41;63140.06;;;11.22
75353;BMP280;76704;51.574;7.088;2024-03-23T08:21:07;63083.13;;;11.21
75353;BMP280;76704;51.574;7.088;2024-03-23T08:23:35;64043.72;;;11.41
75353;BMP280;76704;51.574;7.088;2024-03-23T08:26:12;64178.75;;;11.46
75353;BMP280;76704;51.574;7.088;2024-03-23T08:28:39;64145.97;;;11.48
75353;BMP280;76704;51.574;7.088;2024-03-23T08:31:07;63948.88;;;11.40
75353;BMP280;76704;51.574;7.088;2024-03-23T08:33:35;64305.53;;;11.53
75353;BMP280;76704;51.574;7.088;2024-03-23T08:36:05;65025.59;;;11.66
75353;BMP280;76704;51.574;7.088;2024-03-23T08:38:34;65076.31;;;11.72
75353;BMP280;76704;51.574;7.088;2024-03-23T08:43:29;66115.31;;;11.94
75353;BMP280;76704;51.574;7.088;2024-03-23T08:46:13;66229.13;;;12.01
75353;BMP280;76704;51.574;7.088;2024-03-23T08:48:42;66484.69;;;12.08
75353;BMP280;76704;51.574;7.088;2024-03-23T08:51:16;66495.19;;;12.11
75353;BMP280;76704;51.574;7.088;2024-03-23T08:53:42;66210.19;;;12.03
75353;BMP280;76704;51.574;7.088;2024-03-23T08:56:09;66413.66;;;12.06
75353;BMP280;76704;51.574;7.088;2024-03-23T08:58:37;65303.75;;;12.00
75353;BMP280;76704;51.574;7.088;2024-03-23T09:01:13;66574.78;;;12.18
75353;BMP280;76704;51.574;7.088;2024-03-23T09:03:40;67066.88;;;12.26
75353;BMP280;76704;51.574;7.088;2024-03-23T09:06:09;67249.31;;;12.27
75353;BMP280;76704;51.574;7.088;2024-03-23T09:08:36;67483.09;;;12.36
75353;BMP280;76704;51.574;7.088;2024-03-23T09:13:37;67117.50;;;12.37
75353;BMP280;76704;51.574;7.088;2024-03-23T09:16:06;67491.47;;;12.47
75353;BMP280;76704;51.574;7.088;2024-03-23T09:18:34;67585.16;;;12.47
75353;BMP280;76704;51.574;7.088;2024-03-23T09:21:04;67346.78;;;12.50
75353;BMP280;76704;51.574;7.088;2024-03-23T09:23:30;67010.91;;;12.46
75353;BMP280;76704;51.574;7.088;2024-03-23T09:26:03;66892.94;;;12.48
75353;BMP280;76704;51.574;7.088;2024-03-23T09:28:31;66888.09;;;12.49
75353;BMP280;76704;51.574;7.088;2024-03-23T09:31:09;67093.50;;;12.51
75353;BMP280;76704;51.574;7.088;2024-03-23T09:33:42;66637.94;;;12.45
75353;BMP280;76704;51.574;7.088;2024-03-23T09:36:10;66374.25;;;12.43
75353;BMP280;76704;51.574;7.088;2024-03-23T09:38:37;66929.25;;;12.50
75353;BMP280;76704;51.574;7.088;2024-03-23T09:41:07;66586.91;;;12.47
75353;BMP280;76704;51.574;7.088;2024-03-23T09:43:38;67025.19;;;12.55
75353;BMP280;76704;51.574;7.088;2024-03-23T09:46:05;67741.34;;;12.67
75353;BMP280;76704;51.574;7.088;2024-03-23T09:48:33;68204.44;;;12.80
75353;BMP280;76704;51.574;7.088;2024-03-23T09:50:59;67781.00;;;12.75
75353;BMP280;76704;51.574;7.088;2024-03-23T09:53:27;67456.66;;;12.72
75353;BMP280;76704;51.574;7.088;2024-03-23T09:55:55;67496.16;;;12.74
75353;BMP280;76704;51.574;7.088;2024-03-23T09:58:23;67110.63;;;12.66
75353;BMP280;76704;51.574;7.088;2024-03-23T10:00:52;67574.63;;;12.77
75353;BMP280;76704;51.574;7.088;2024-03-23T10:03:19;67347.69;;;12.75
75353;BMP280;76704;51.574;7.088;2024-03-23T10:05:47;66931.38;;;12.71
75353;BMP280;76704;51.574;7.088;2024-03-23T10:10:45;66129.19;;;12.55
75353;BMP280;76704;51.574;7.088;2024-03-23T10:13:26;66438.69;;;12.60
75353;BMP280;76704;51.574;7.088;2024-03-23T10:16:00;66703.72;;;12.66
75353;BMP280;76704;51.574;7.088;2024-03-23T10:18:29;66805.44;;;12.66
75353;BMP280;76704;51.574;7.088;2024-03-23T10:21:10;67229.88;;;12.75
75353;BMP280;76704;51.574;7.088;2024-03-23T10:23:39;67676.75;;;12.88
75353;BMP280;76704;51.574;7.088;2024-03-23T10:26:25;68253.69;;;13.00
75353;BMP280;76704;51.574;7.088;2024-03-23T10:28:59;68000.28;;;12.99
75353;BMP280;76704;51.574;7.088;2024-03-23T10:31:38;67298.28;;;12.85
75353;BMP280;76704;51.574;7.088;2024-03-23T10:34:08;68174.03;;;13.06
75353;BMP280;76704;51.574;7.088;2024-03-23T10:36:38;68096.31;;;13.06
75353;BMP280;76704;51.574;7.088;2024-03-23T10:39:07;68210.75;;;13.11
75353;BMP280;76704;51.574;7.088;2024-03-23T10:41:36;67958.38;;;12.92
75353;BMP280;76704;51.574;7.088;2024-03-23T10:44:04;69080.22;;;13.25
75353;BMP280;76704;51.574;7.088;2024-03-23T10:46:32;69518.00;;;13.36
75353;BMP280;76704;51.574;7.088;2024-03-23T10:49:00;70405.63;;;13.54
75353;BMP280;76704;51.574;7.088;2024-03-23T10:51:28;71796.78;;;13.83
75353;BMP280;76704;51.574;7.088;2024-03-23T10:53:55;70978.16;;;13.76
75353;BMP280;76704;51.574;7.088;2024-03-23T10:56:23;72275.13;;;14.01
75353;BMP280;76704;51.574;7.088;2024-03-23T10:58:51;72249.88;;;14.02
75353;BMP280;76704;51.574;7.088;2024-03-23T11:01:17;72128.91;;;13.97
75353;BMP280;76704;51.574;7.088;2024-03-23T11:03:45;72398.31;;;14.10
75353;BMP280;76704;51.574;7.088;2024-03-23T11:06:38;71916.63;;;14.05
75353;BMP280;76704;51.574;7.088;2024-03-23T11:09:41;70184.94;;;13.77
75353;BMP280;76704;51.574;7.088;2024-03-23T11:15:10;67058.66;;;13.16
75353;BMP280;76704;51.574;7.088;2024-03-23T11:17:39;67531.25;;;13.18
75353;BMP280;76704;51.574;7.088;2024-03-23T11:20:07;67308.03;;;13.14
75353;BMP280;76704;51.574;7.088;2024-03-23T11:22:47;67662.06;;;13.17
75353;BMP280;76704;51.574;7.088;2024-03-23T11:25:25;67809.28;;;13.20
75353;BMP280;76704;51.574;7.088;2024-03-23T11:30:25;68363.84;;;13.25
75353;BMP280;76704;51.574;7.088;2024-03-23T11:32:57;69306.00;;;13.39
75353;BMP280;76704;51.574;7.088;2024-03-23T11:35:38;69851.75;;;13.53
75353;BMP280;76704;51.574;7.088;2024-03-23T11:38:16;70203.53;;;13.64
75353;BMP280;76704;51.574;7.088;2024-03-23T11:40:49;70801.47;;;13.74
75353;BMP280;76704;51.574;7.088;2024-03-23T11:43:19;72028.41;;;13.96
75353;BMP280;76704;51.574;7.088;2024-03-23T11:45:51;72103.13;;;14.06
75353;BMP280;76704;51.574;7.088;2024-03-23T11:48:26;73115.97;;;14.27
75353;BMP280;76704;51.574;7.088;2024-03-23T11:50:58;74101.75;;;14.31
75353;BMP280;76704;51.574;7.088;2024-03-23T11:53:25;75265.53;;;14.73
75353;BMP280;76704;51.574;7.088;2024-03-23T11:55:59;76595.66;;;15.06
75353;BMP280;76704;51.574;7.088;2024-03-23T11:58:27;77694.78;;;15.35
75353;BMP280;76704;51.574;7.088;2024-03-23T12:01:04;77189.84;;;15.37
75353;BMP280;76704;51.574;7.088;2024-03-23T12:03:31;76879.91;;;15.35
75353;BMP280;76704;51.574;7.088;2024-03-23T12:06:00;77358.53;;;15.48
75353;BMP280;76704;51.574;7.088;2024-03-23T12:08:37;76830.41;;;15.44
75353;BMP280;76704;51.574;7.088;2024-03-23T12:13:33;76398.53;;;15.42
75353;BMP280;76704;51.574;7.088;2024-03-23T12:16:24;76246.16;;;15.38
75353;BMP280;76704;51.574;7.088;2024-03-23T12:19:04;74608.28;;;15.13
75353;BMP280;76704;51.574;7.088;2024-03-23T12:21:31;74125.09;;;15.02
75353;BMP280;76704;51.574;7.088;2024-03-23T12:23:58;74740.91;;;15.13
75353;BMP280;76704;51.574;7.088;2024-03-23T12:26:27;73945.66;;;15.00
75353;BMP280;76704;51.574;7.088;2024-03-23T12:28:56;73771.13;;;15.01
75353;BMP280;76704;51.574;7.088;2024-03-23T12:31:22;73180.16;;;14.95
75353;BMP280;76704;51.574;7.088;2024-03-23T12:33:48;74726.63;;;15.20
75353;BMP280;76704;51.574;7.088;2024-03-23T12:36:19;75540.50;;;15.36
75353;BMP280;76704;51.574;7.088;2024-03-23T12:38:45;76159.09;;;15.52
75353;BMP280;76704;51.574;7.088;2024-03-23T12:41:13;76553.72;;;15.62
75353;BMP280;76704;51.574;7.088;2024-03-23T12:43:40;76960.28;;;15.78
75353;BMP280;76704;51.574;7.088;2024-03-23T12:46:06;77131.16;;;15.88
75353;BMP280;76704;51.574;7.088;2024-03-23T12:48:34;77087.19;;;15.92
75353;BMP280;76704;51.574;7.088;2024-03-23T12:51:00;77346.28;;;15.97
75353;BMP280;76704;51.574;7.088;2024-03-23T12:53:27;77448.22;;;16.08
75353;BMP280;76704;51.574;7.088;2024-03-23T12:55:54;77970.94;;;16.16
75353;BMP280;76704;51.574;7.088;2024-03-23T12:58:23;77984.66;;;16.18
75353;BMP280;76704;51.574;7.088;2024-03-23T13:00:52;77368.56;;;16.18
75353;BMP280;76704;51.574;7.088;2024-03-23T13:03:18;77900.06;;;16.27
75353;BMP280;76704;51.574;7.088;2024-03-23T13:05:51;77716.09;;;16.32
75353;BMP280;76704;51.574;7.088;2024-03-23T13:08:18;76943.44;;;16.13
75353;BMP280;76704;51.574;7.088;2024-03-23T13:10:44;76000.25;;;16.03
75353;BMP280;76704;51.574;7.088;2024-03-23T13:13:11;75661.25;;;15.94
75353;BMP280;76704;51.574;7.088;2024-03-23T13:15:37;74244.06;;;15.64
75353;BMP280;76704;51.574;7.088;2024-03-23T13:18:05;73676.94;;;15.48
75353;BMP280;76704;51.574;7.088;2024-03-23T13:20:35;72897.84;;;15.30
75353;BMP280;76704;51.574;7.088;2024-03-23T13:23:02;71858.31;;;15.07
75353;BMP280;76704;51.574;7.088;2024-03-23T13:25:29;72569.66;;;15.18
75353;BMP280;76704;51.574;7.088;2024-03-23T13:27:58;72707.56;;;15.19
75353;BMP280;76704;51.574;7.088;2024-03-23T13:30:25;72013.91;;;14.89
75353;BMP280;76704;51.574;7.088;2024-03-23T13:32:51;71754.50;;;14.88
75353;BMP280;76704;51.574;7.088;2024-03-23T13:35:17;71300.31;;;14.86
75353;BMP280;76704;51.574;7.088;2024-03-23T13:37:45;70556.84;;;14.82
75353;BMP280;76704;51.574;7.088;2024-03-23T13:40:11;69477.47;;;14.55
75353;BMP280;76704;51.574;7.088;2024-03-23T13:42:39;69444.81;;;14.52
75353;BMP280;76704;51.574;7.088;2024-03-23T13:45:07;68298.78;;;14.32
75353;BMP280;76704;51.574;7.088;2024-03-23T13:47:34;68235.94;;;14.22
75353;BMP280;76704;51.574;7.088;2024-03-23T13:50:03;67399.88;;;14.02
75353;BMP280;76704;51.574;7.088;2024-03-23T13:52:30;66091.13;;;13.75
75353;BMP280;76704;51.574;7.088;2024-03-23T13:54:59;67413.69;;;13.89
75353;BMP280;76704;51.574;7.088;2024-03-23T13:57:26;66525.75;;;13.78
75353;BMP280;76704;51.574;7.088;2024-03-23T13:59:52;66709.09;;;13.79
75353;BMP280;76704;51.574;7.088;2024-03-23T14:02:21;66542.97;;;13.70
75353;BMP280;76704;51.574;7.088;2024-03-23T14:04:47;66288.25;;;13.65
75353;BMP280;76704;51.574;7.088;2024-03-23T14:07:16;66557.53;;;13.63
75353;BMP280;76704;51.574;7.088;2024-03-23T14:09:45;68484.88;;;13.97
75353;BMP280;76704;51.574;7.088;2024-03-23T14:12:12;68384.78;;;14.02
75353;BMP280;76704;51.574;7.088;2024-03-23T14:14:39;69539.53;;;14.21
75353;BMP280;76704;51.574;7.088;2024-03-23T14:17:06;70695.91;;;14.45
75353;BMP280;76704;51.574;7.088;2024-03-23T14:19:40;72082.28;;;14.72
75353;BMP280;76704;51.574;7.088;2024-03-23T14:22:08;72135.03;;;14.81
75353;BMP280;76704;51.574;7.088;2024-03-23T14:24:37;73793.50;;;15.12
75353;BMP280;76704;51.574;7.088;2024-03-23T14:27:06;75390.47;;;15.45
75353;BMP280;76704;51.574;7.088;2024-03-23T14:29:33;76185.81;;;15.73
75353;BMP280;76704;51.574;7.088;2024-03-23T14:32:02;77193.88;;;15.96
75353;BMP280;76704;51.574;7.088;2024-03-23T14:34:28;76585.88;;;15.98
75353;BMP280;76704;51.574;7.088;2024-03-23T14:36:55;76407.50;;;15.95
75353;BMP280;76704;51.574;7.088;2024-03-23T14:39:25;76526.47;;;15.98
75353;BMP280;76704;51.574;7.088;2024-03-23T14:41:52;76145.03;;;15.94
75353;BMP280;76704;51.574;7.088;2024-03-23T14:44:19;76102.28;;;16.02
75353;BMP280;76704;51.574;7.088;2024-03-23T14:46:45;75303.59;;;15.88
75353;BMP280;76704;51.574;7.088;2024-03-23T14:49:14;75361.38;;;15.89
75353;BMP280;76704;51.574;7.088;2024-03-23T14:51:46;75697.59;;;15.98
75353;BMP280;76704;51.574;7.088;2024-03-23T14:54:15;74756.19;;;15.83
75353;BMP280;76704;51.574;7.088;2024-03-23T14:56:41;76069.75;;;16.00
75353;BMP280;76704;51.574;7.088;2024-03-23T14:59:10;77659.22;;;16.36
75353;BMP280;76704;51.574;7.088;2024-03-23T15:01:37;78742.31;;;16.59
75353;BMP280;76704;51.574;7.088;2024-03-23T15:04:05;78855.72;;;16.72
75353;BMP280;76704;51.574;7.088;2024-03-23T15:06:32;78239.38;;;16.66
75353;BMP280;76704;51.574;7.088;2024-03-23T15:09:00;77385.13;;;16.57
75353;BMP280;76704;51.574;7.088;2024-03-23T15:11:27;76938.94;;;16.40
75353;BMP280;76704;51.574;7.088;2024-03-23T15:13:53;76369.34;;;16.40
75353;BMP280;76704;51.574;7.088;2024-03-23T15:16:22;75487.22;;;16.22
75353;BMP280;76704;51.574;7.088;2024-03-23T15:18:49;75044.63;;;16.15
75353;BMP280;76704;51.574;7.088;2024-03-23T15:21:17;74336.47;;;16.02
75353;BMP280;76704;51.574;7.088;2024-03-23T15:23:47;75111.56;;;16.14
75353;BMP280;76704;51.574;7.088;2024-03-23T15:26:15;75689.31;;;16.24